createdAt,value
2018-09-10T00:01:05.578Z,101890.91
2018-09-10T00:03:44.131Z,101886.97
2018-09-10T00:06:21.515Z,101890.11
2018-09-10T00:08:58.226Z,101883.52
2018-09-10T00:11:36.708Z,101895.48
2018-09-10T00:14:14.107Z,101889.77
2018-09-10T00:16:51.407Z,101897.33
2018-09-10T00:19:29.017Z,101896.88
2018-09-10T00:22:06.542Z,101892.05
2018-09-10T00:24:43.287Z,101890.30
2018-09-10T00:27:20.374Z,101883.22
2018-09-10T00:29:56.966Z,101896.97
2018-09-10T00:32:35.556Z,101886.80
2018-09-10T00:35:05.039Z,101892.11
2018-09-10T00:37:34.370Z,101892.11
2018-09-10T00:40:03.693Z,101892.57
2018-09-10T00:42:33.001Z,101892.57
2018-09-10T00:45:02.349Z,101889.06
2018-09-10T00:47:31.764Z,101896.16
2018-09-10T00:50:01.183Z,101902.80
2018-09-10T00:52:30.506Z,101907.22
2018-09-10T00:54:59.848Z,101913.45
2018-09-10T00:57:29.167Z,101913.46
2018-09-10T00:59:58.570Z,101907.30
2018-09-10T01:02:27.866Z,101906.88
2018-09-10T01:04:57.190Z,101904.28
2018-09-10T01:07:26.498Z,101918.89
2018-09-10T01:09:55.851Z,101911.38
2018-09-10T01:12:25.190Z,101915.38
2018-09-10T01:14:54.521Z,101913.20
2018-09-10T01:17:23.857Z,101919.00
2018-09-10T01:19:53.738Z,101919.02
2018-09-10T01:22:23.125Z,101918.63
2018-09-10T01:24:52.472Z,101911.18
2018-09-10T01:27:21.836Z,101908.59
2018-09-10T01:29:51.373Z,101895.84
2018-09-10T01:32:20.726Z,101884.41
2018-09-10T01:34:55.277Z,101883.09
2018-09-10T01:37:24.637Z,101886.26
2018-09-10T01:39:53.995Z,101894.64
2018-09-10T01:42:23.338Z,101900.84
2018-09-10T01:44:52.730Z,101897.34
2018-09-10T01:47:22.061Z,101900.86
2018-09-10T01:49:51.396Z,101896.00
2018-09-10T01:52:20.745Z,101889.38
2018-09-10T01:54:50.274Z,101878.77
2018-09-10T01:57:19.786Z,101880.52
2018-09-10T01:59:49.313Z,101884.48
2018-09-10T02:02:18.919Z,101892.02
2018-09-10T02:04:48.456Z,101884.94
2018-09-10T02:07:17.885Z,101893.31
2018-09-10T02:09:47.388Z,101893.76
2018-09-10T02:12:21.970Z,101891.98
2018-09-10T02:14:51.482Z,101892.89
2018-09-10T02:17:21.024Z,101895.54
2018-09-10T02:19:50.709Z,101896.41
2018-09-10T02:22:20.417Z,101900.38
2018-09-10T02:24:50.071Z,101891.52
2018-09-10T02:27:19.739Z,101882.23
2018-09-10T02:29:49.330Z,101891.52
2018-09-10T02:32:22.550Z,101883.55
2018-09-10T02:34:52.104Z,101883.55
2018-09-10T02:37:21.677Z,101880.45
2018-09-10T02:39:51.226Z,101874.69
2018-09-10T02:42:20.562Z,101879.99
2018-09-10T02:44:49.892Z,101883.09
2018-09-10T02:47:19.189Z,101880.86
2018-09-10T02:49:48.536Z,101894.11
2018-09-10T02:52:17.851Z,101896.30
2018-09-10T02:54:47.166Z,101888.33
2018-09-10T02:57:16.487Z,101887.42
2018-09-10T02:59:45.796Z,101894.45
2018-09-10T03:02:15.151Z,101899.75
2018-09-10T03:04:45.659Z,101898.42
2018-09-10T03:07:16.002Z,101897.97
2018-09-10T03:09:45.356Z,101902.82
2018-09-10T03:12:29.433Z,101901.50
2018-09-10T03:14:58.766Z,101906.84
2018-09-10T03:17:28.386Z,101916.99
2018-09-10T03:19:58.270Z,101915.67
2018-09-10T03:22:27.608Z,101910.37
2018-09-10T03:24:56.965Z,101914.34
2018-09-10T03:27:26.282Z,101915.67
2018-09-10T03:29:55.626Z,101915.67
2018-09-10T03:32:24.941Z,101914.80
2018-09-10T03:34:54.270Z,101920.53
2018-09-10T03:37:23.577Z,101922.72
2018-09-10T03:39:52.939Z,101926.24
2018-09-10T03:42:22.282Z,101925.83
2018-09-10T03:44:51.624Z,101920.52
2018-09-10T03:47:21.007Z,101919.15
2018-09-10T03:49:50.309Z,101922.70
2018-09-10T03:52:19.621Z,101921.39
2018-09-10T03:54:48.942Z,101922.72
2018-09-10T03:57:18.282Z,101924.50
2018-09-10T03:59:47.636Z,101924.05
2018-09-10T04:02:16.964Z,101920.06
2018-09-10T04:04:46.325Z,101921.91
2018-09-10T04:07:15.641Z,101914.41
2018-09-10T04:12:26.395Z,101922.31
2018-09-10T04:15:05.312Z,101932.45
2018-09-10T04:17:34.776Z,101927.16
2018-09-10T04:20:08.170Z,101932.41
2018-09-10T04:22:38.277Z,101934.59
2018-09-10T04:25:08.085Z,101932.81
2018-09-10T04:27:38.105Z,101930.14
2018-09-10T04:30:12.378Z,101931.47
2018-09-10T04:32:41.764Z,101932.81
2018-09-10T04:35:11.845Z,101935.69
2018-09-10T04:37:41.577Z,101937.53
2018-09-10T04:40:11.074Z,101947.28
2018-09-10T04:42:40.611Z,101942.44
2018-09-10T04:45:09.981Z,101933.20
2018-09-10T04:47:39.345Z,101935.92
2018-09-10T04:50:08.790Z,101938.69
2018-09-10T04:52:38.163Z,101950.22
2018-09-10T04:55:09.138Z,101940.53
2018-09-10T04:57:38.553Z,101949.88
2018-09-10T05:00:08.811Z,101942.39
2018-09-10T05:02:38.170Z,101940.69
2018-09-10T05:05:07.681Z,101942.06
2018-09-10T05:07:37.046Z,101942.54
2018-09-10T05:10:09.765Z,101942.63
2018-09-10T05:12:39.228Z,101952.37
2018-09-10T05:15:08.737Z,101942.28
2018-09-10T05:17:38.213Z,101952.06
2018-09-10T05:20:08.496Z,101958.73
2018-09-10T05:22:37.958Z,101975.55
2018-09-10T05:25:07.398Z,101974.72
2018-09-10T05:27:36.798Z,101976.96
2018-09-10T05:30:06.252Z,101979.65
2018-09-10T05:32:35.759Z,101982.30
2018-09-10T05:35:06.220Z,101984.08
2018-09-10T05:37:35.625Z,101988.09
2018-09-10T05:40:09.150Z,101991.61
2018-09-10T05:42:38.659Z,101990.73
2018-09-10T05:45:11.827Z,101999.14
2018-09-10T05:47:41.707Z,101992.94
2018-09-10T05:50:12.033Z,101996.48
2018-09-10T05:52:41.417Z,101989.37
2018-09-10T05:55:10.884Z,101992.48
2018-09-10T05:57:40.708Z,101992.48
2018-09-10T06:00:11.125Z,102002.14
2018-09-10T06:02:40.507Z,102002.59
2018-09-10T06:05:09.911Z,102002.55
2018-09-10T06:07:39.293Z,102008.27
2018-09-10T06:10:08.679Z,102006.48
2018-09-10T06:12:38.128Z,102007.32
2018-09-10T06:15:08.738Z,102010.34
2018-09-10T06:17:38.144Z,102016.87
2018-09-10T06:20:07.551Z,102011.45
2018-09-10T06:22:36.915Z,102012.63
2018-09-10T06:25:07.157Z,102010.69
2018-09-10T06:27:36.558Z,102019.77
2018-09-10T06:30:07.038Z,102012.11
2018-09-10T06:32:39.202Z,102012.78
2018-09-10T06:35:08.721Z,102013.02
2018-09-10T06:37:38.137Z,102012.86
2018-09-10T06:40:07.677Z,102004.22
2018-09-10T06:42:37.095Z,102009.34
2018-09-10T06:45:06.702Z,102013.23
2018-09-10T06:47:36.106Z,102010.97
2018-09-10T06:50:06.601Z,102002.55
2018-09-10T06:52:35.946Z,102001.72
2018-09-10T06:55:05.796Z,101992.89
2018-09-10T06:57:35.488Z,101996.43
2018-09-10T07:00:07.594Z,101996.83
2018-09-10T07:02:36.967Z,101995.89
2018-09-10T07:05:06.502Z,101986.11
2018-09-10T07:07:35.944Z,101988.67
2018-09-10T07:10:06.871Z,101985.50
2018-09-10T07:12:36.395Z,101993.41
2018-09-10T07:15:06.177Z,101993.79
2018-09-10T07:17:35.757Z,101985.33
2018-09-10T07:20:06.625Z,101982.61
2018-09-10T07:22:37.364Z,101990.05
2018-09-10T07:25:06.867Z,101988.20
2018-09-10T07:27:36.262Z,101994.72
2018-09-10T07:30:07.078Z,101999.53
2018-09-10T07:32:36.489Z,102000.78
2018-09-10T07:35:06.325Z,102003.67
2018-09-10T07:37:35.660Z,102006.55
2018-09-10T07:40:06.341Z,102003.28
2018-09-10T07:42:35.867Z,102006.17
2018-09-10T07:45:05.443Z,102007.34
2018-09-10T07:47:35.677Z,102015.20
2018-09-10T07:50:06.439Z,102017.78
2018-09-10T07:52:36.799Z,102024.89
2018-09-10T07:55:06.810Z,102020.62
2018-09-10T07:57:36.245Z,102025.54
2018-09-10T08:00:06.460Z,102022.44
2018-09-10T08:02:35.969Z,102017.94
2018-09-10T08:05:05.629Z,102037.61
2018-09-10T08:07:34.997Z,102037.33
2018-09-10T08:10:05.041Z,102045.12
2018-09-10T08:12:34.710Z,102052.42
2018-09-10T08:15:04.101Z,102045.53
2018-09-10T08:17:33.537Z,102054.16
2018-09-10T08:20:02.905Z,102051.06
2018-09-10T08:22:33.561Z,102043.30
2018-09-10T08:25:03.278Z,102035.20
2018-09-10T08:27:32.802Z,102027.00
2018-09-10T08:30:02.379Z,102029.38
2018-09-10T08:32:32.495Z,102046.77
2018-09-10T08:35:01.963Z,102054.77
2018-09-10T08:37:31.426Z,102061.00
2018-09-10T08:40:00.844Z,102049.93
2018-09-10T08:42:30.294Z,102053.44
2018-09-10T08:44:59.794Z,102045.09
2018-09-10T08:47:29.167Z,102039.07
2018-09-10T08:49:58.588Z,102056.31
2018-09-10T08:52:27.988Z,102046.28
2018-09-10T08:54:57.665Z,102058.91
2018-09-10T08:57:27.326Z,102058.98
2018-09-10T08:59:56.742Z,102053.38
2018-09-10T09:02:26.224Z,102046.20
2018-09-10T09:04:55.652Z,102038.55
2018-09-10T09:07:25.080Z,102047.50
2018-09-10T09:09:54.485Z,102071.05
2018-09-10T09:12:24.097Z,102073.69
2018-09-10T09:14:53.490Z,102075.89
2018-09-10T09:17:22.879Z,102070.45
2018-09-10T09:19:52.476Z,102069.95
2018-09-10T09:22:21.928Z,102062.45
2018-09-10T09:24:51.646Z,102074.44
2018-09-10T09:27:21.200Z,102070.47
2018-09-10T09:29:50.621Z,102062.88
2018-09-10T09:32:20.023Z,102067.72
2018-09-10T09:34:54.634Z,102082.11
2018-09-10T09:37:29.879Z,102096.70
2018-09-10T09:40:04.740Z,102080.50
2018-09-10T09:42:39.308Z,102087.89
2018-09-10T09:45:14.019Z,102078.91
2018-09-10T09:47:43.489Z,102087.95
2018-09-10T09:50:13.002Z,102081.00
2018-09-10T09:52:42.491Z,102092.66
2018-09-10T09:55:11.996Z,102091.08
2018-09-10T09:57:42.454Z,102095.23
2018-09-10T10:00:15.791Z,102083.05
2018-09-10T10:02:50.322Z,102091.28
2018-09-10T10:05:21.006Z,102100.82
2018-09-10T10:07:50.897Z,102098.67
2018-09-10T10:10:20.725Z,102091.72
2018-09-10T10:12:50.231Z,102096.92
2018-09-10T10:15:20.039Z,102092.66
2018-09-10T10:17:51.583Z,102090.22
2018-09-10T10:20:20.983Z,102098.83
2018-09-10T10:22:50.453Z,102101.66
2018-09-10T10:25:20.422Z,102096.85
2018-09-10T10:27:49.870Z,102069.53
2018-09-10T10:30:19.339Z,102078.94
2018-09-10T10:32:48.761Z,102082.64
2018-09-10T10:35:18.373Z,102079.77
2018-09-10T10:37:47.794Z,102083.84
2018-09-10T10:40:17.158Z,102079.80
2018-09-10T10:42:46.678Z,102071.52
2018-09-10T10:45:16.143Z,102078.50
2018-09-10T10:47:45.546Z,102082.04
2018-09-10T10:50:15.081Z,102075.45
2018-09-10T10:52:44.557Z,102072.06
2018-09-10T10:55:14.298Z,102075.56
2018-09-10T10:57:43.761Z,102075.28
2018-09-10T11:00:13.275Z,102068.05
2018-09-10T11:02:42.680Z,102084.45
2018-09-10T11:05:12.258Z,102087.17
2018-09-10T11:07:41.674Z,102100.20
2018-09-10T11:10:11.229Z,102097.92
2018-09-10T11:12:40.622Z,102094.49
2018-09-10T11:15:10.138Z,102102.56
2018-09-10T11:17:39.562Z,102108.27
2018-09-10T11:20:09.052Z,102118.11
2018-09-10T11:22:39.617Z,102136.22
2018-09-10T11:25:09.137Z,102129.50
2018-09-10T11:27:38.630Z,102117.92
2018-09-10T11:30:08.061Z,102133.05
2018-09-10T11:32:37.408Z,102141.08
2018-09-10T11:35:07.450Z,102134.48
2018-09-10T11:37:37.766Z,102127.83
2018-09-10T11:40:07.167Z,102138.39
2018-09-10T11:42:36.830Z,102135.14
2018-09-10T11:45:06.417Z,102137.35
2018-09-10T11:47:35.956Z,102139.16
2018-09-10T11:50:06.821Z,102151.89
2018-09-10T11:52:36.243Z,102158.80
2018-09-10T11:55:06.858Z,102167.98
2018-09-10T11:57:36.286Z,102157.23
2018-09-10T12:00:06.315Z,102184.37
2018-09-10T12:02:35.684Z,102195.42
2018-09-10T12:05:06.262Z,102194.45
2018-09-10T12:07:35.721Z,102184.12
2018-09-10T12:10:06.765Z,102167.45
2018-09-10T12:12:36.160Z,102164.13
2018-09-10T12:15:06.411Z,102162.89
2018-09-10T12:17:35.805Z,102154.41
2018-09-10T12:20:06.261Z,102161.86
2018-09-10T12:22:36.146Z,102150.27
2018-09-10T12:25:06.168Z,102156.02
2018-09-10T12:27:35.841Z,102166.77
2018-09-10T12:30:06.583Z,102163.27
2018-09-10T12:32:35.948Z,102161.43
2018-09-10T12:35:05.292Z,102168.11
2018-09-10T12:37:34.627Z,102182.20
2018-09-10T12:40:06.000Z,102174.64
2018-09-10T12:42:35.426Z,102171.94
2018-09-10T12:45:06.429Z,102154.14
2018-09-10T12:47:35.832Z,102151.69
2018-09-10T12:50:06.484Z,102171.45
2018-09-10T12:52:35.894Z,102164.52
2018-09-10T12:55:06.176Z,102174.77
2018-09-10T12:57:35.582Z,102186.80
2018-09-10T13:00:06.677Z,102177.94
2018-09-10T13:02:36.367Z,102170.95
2018-09-10T13:05:06.546Z,102165.14
2018-09-10T13:07:36.055Z,102171.20
2018-09-10T13:10:06.713Z,102176.98
2018-09-10T13:12:36.070Z,102167.55
2018-09-10T13:15:06.122Z,102169.09
2018-09-10T13:17:35.483Z,102171.80
2018-09-10T13:20:06.198Z,102165.81
2018-09-10T13:22:35.618Z,102162.52
2018-09-10T13:25:06.368Z,102156.09
2018-09-10T13:27:35.808Z,102159.27
2018-09-10T13:30:05.300Z,102146.41
2018-09-10T13:32:34.689Z,102157.47
2018-09-10T13:35:04.106Z,102177.41
2018-09-10T13:37:33.488Z,102169.11
2018-09-10T13:40:02.887Z,102172.13
2018-09-10T13:42:32.353Z,102171.66
2018-09-10T13:45:01.799Z,102179.30
2018-09-10T13:47:31.159Z,102178.31
2018-09-10T13:50:00.489Z,102183.47
2018-09-10T13:52:29.863Z,102190.52
2018-09-10T13:54:59.415Z,102199.38
2018-09-10T13:57:28.761Z,102194.03
2018-09-10T13:59:58.198Z,102193.05
2018-09-10T14:02:27.553Z,102190.15
2018-09-10T14:04:56.868Z,102189.87
2018-09-10T14:07:26.284Z,102197.45
2018-09-10T14:09:55.765Z,102203.30
2018-09-10T14:12:25.206Z,102205.25
2018-09-10T14:14:54.654Z,102191.73
2018-09-10T14:17:24.018Z,102226.72
2018-09-10T14:19:54.359Z,102217.23
2018-09-10T14:22:23.929Z,102200.62
2018-09-10T14:24:53.333Z,102207.02
2018-09-10T14:27:22.748Z,102208.58
2018-09-10T14:29:57.249Z,102204.95
2018-09-10T14:32:26.648Z,102208.23
2018-09-10T14:34:56.050Z,102222.17
2018-09-10T14:37:25.437Z,102230.27
2018-09-10T14:39:54.802Z,102252.66
2018-09-10T14:42:24.168Z,102237.63
2018-09-10T14:44:57.171Z,102236.80
2018-09-10T14:47:26.539Z,102232.41
2018-09-10T14:49:55.986Z,102246.03
2018-09-10T14:52:25.469Z,102249.31
2018-09-10T14:54:54.853Z,102238.31
2018-09-10T14:57:24.257Z,102230.97
2018-09-10T14:59:53.679Z,102218.57
2018-09-10T15:02:23.045Z,102214.19
2018-09-10T15:04:52.397Z,102201.44
2018-09-10T15:07:21.825Z,102204.59
2018-09-10T15:09:51.315Z,102195.53
2018-09-10T15:12:20.719Z,102197.78
2018-09-10T15:14:50.079Z,102197.95
2018-09-10T15:17:19.529Z,102184.08
2018-09-10T15:19:49.756Z,102184.97
2018-09-10T15:22:19.142Z,102195.98
2018-09-10T15:24:48.589Z,102193.56
2018-09-10T15:27:17.997Z,102194.41
2018-09-10T15:29:47.713Z,102188.80
2018-09-10T15:32:17.094Z,102184.17
2018-09-10T15:34:46.550Z,102178.56
2018-09-10T15:37:16.817Z,102184.50
2018-09-10T15:39:46.438Z,102174.80
2018-09-10T15:42:15.830Z,102151.38
2018-09-10T15:44:45.452Z,102149.41
2018-09-10T15:47:14.837Z,102155.86
2018-09-10T15:49:44.326Z,102161.63
2018-09-10T15:52:13.723Z,102175.45
2018-09-10T15:54:43.225Z,102177.83
2018-09-10T15:57:12.616Z,102186.37
2018-09-10T15:59:42.046Z,102188.63
2018-09-10T16:02:11.451Z,102174.86
2018-09-10T16:04:41.018Z,102185.45
2018-09-10T16:07:10.529Z,102199.27
2018-09-10T16:09:39.967Z,102191.00
2018-09-10T16:12:09.523Z,102178.13
2018-09-10T16:14:38.956Z,102186.57
2018-09-10T16:17:08.490Z,102182.57
2018-09-10T16:19:37.853Z,102197.64
2018-09-10T16:22:07.207Z,102191.91
2018-09-10T16:24:36.642Z,102187.46
2018-09-10T16:27:09.788Z,102184.84
2018-09-10T16:29:39.429Z,102175.98
2018-09-10T16:32:10.377Z,102167.55
2018-09-10T16:34:39.757Z,102165.37
2018-09-10T16:37:09.294Z,102155.70
2018-09-10T16:39:38.661Z,102170.95
2018-09-10T16:42:08.110Z,102163.56
2018-09-10T16:44:37.524Z,102162.30
2018-09-10T16:47:06.927Z,102168.19
2018-09-10T16:49:36.516Z,102169.15
2018-09-10T16:52:06.298Z,102183.06
2018-09-10T16:54:35.729Z,102188.08
2018-09-10T16:57:06.425Z,102188.71
2018-09-10T16:59:35.845Z,102187.02
2018-09-10T17:02:06.630Z,102179.95
2018-09-10T17:04:36.032Z,102181.28
2018-09-10T17:07:07.126Z,102176.36
2018-09-10T17:09:36.653Z,102180.02
2018-09-10T17:12:06.295Z,102172.11
2018-09-10T17:14:37.824Z,102171.70
2018-09-10T17:17:08.151Z,102171.80
2018-09-10T17:19:37.567Z,102166.19
2018-09-10T17:22:07.852Z,102171.16
2018-09-10T17:24:37.274Z,102157.01
2018-09-10T17:27:06.661Z,102150.89
2018-09-10T17:29:36.057Z,102149.65
2018-09-10T17:32:06.282Z,102147.94
2018-09-10T17:34:35.711Z,102154.66
2018-09-10T17:37:06.508Z,102144.54
2018-09-10T17:39:36.256Z,102141.05
2018-09-10T17:42:06.594Z,102149.96
2018-09-10T17:44:35.981Z,102164.25
2018-09-10T17:47:06.553Z,102177.16
2018-09-10T17:49:35.934Z,102178.11
2018-09-10T17:52:06.283Z,102177.30
2018-09-10T17:54:36.322Z,102170.25
2018-09-10T17:57:07.347Z,102165.41
2018-09-10T17:59:36.814Z,102153.95
2018-09-10T18:02:06.236Z,102160.16
2018-09-10T18:04:35.634Z,102165.52
2018-09-10T18:07:06.314Z,102165.58
2018-09-10T18:09:36.115Z,102178.78
2018-09-10T18:12:06.735Z,102184.98
2018-09-10T18:14:36.190Z,102175.27
2018-09-10T18:17:06.456Z,102174.39
2018-09-10T18:19:35.878Z,102164.23
2018-09-10T18:22:06.316Z,102167.77
2018-09-10T18:24:35.704Z,102162.50
2018-09-10T18:27:06.438Z,102160.32
2018-09-10T18:29:35.777Z,102172.75
2018-09-10T18:32:08.828Z,102168.81
2018-09-10T18:34:38.385Z,102168.41
2018-09-10T18:37:07.805Z,102161.81
2018-09-10T18:39:37.352Z,102154.33
2018-09-10T18:42:06.776Z,102169.86
2018-09-10T18:44:36.301Z,102171.20
2018-09-10T18:47:06.324Z,102176.56
2018-09-10T18:49:35.732Z,102177.07
2018-09-10T18:52:07.311Z,102178.01
2018-09-10T18:54:36.945Z,102181.59
2018-09-10T18:57:06.628Z,102177.20
2018-09-10T18:59:36.030Z,102162.17
2018-09-10T19:02:06.306Z,102160.89
2018-09-10T19:04:35.756Z,102166.22
2018-09-10T19:07:06.160Z,102163.15
2018-09-10T19:09:35.539Z,102160.05
2018-09-10T19:12:06.253Z,102155.19
2018-09-10T19:14:35.940Z,102145.94
2018-09-10T19:17:07.491Z,102153.91
2018-09-10T19:19:36.922Z,102156.16
2018-09-10T19:22:06.360Z,102161.06
2018-09-10T19:24:37.461Z,102157.95
2018-09-10T19:27:06.944Z,102154.83
2018-09-10T19:29:36.480Z,102153.51
2018-09-10T19:32:06.695Z,102161.02
2018-09-10T19:34:36.131Z,102172.97
2018-09-10T19:37:06.414Z,102176.95
2018-09-10T19:39:35.927Z,102173.88
2018-09-10T19:42:06.528Z,102172.96
2018-09-10T19:44:36.016Z,102168.52
2018-09-10T19:47:06.183Z,102174.28
2018-09-10T19:49:35.620Z,102168.93
2018-09-10T19:52:07.337Z,102166.31
2018-09-10T19:54:36.823Z,102176.95
2018-09-10T19:57:06.668Z,102177.41
2018-09-10T19:59:36.881Z,102177.00
2018-09-10T20:02:06.717Z,102173.52
2018-09-10T20:04:36.164Z,102165.56
2018-09-10T20:07:06.778Z,102156.72
2018-09-10T20:09:37.417Z,102151.45
2018-09-10T20:12:06.938Z,102147.93
2018-09-10T20:14:37.509Z,102152.79
2018-09-10T20:17:06.922Z,102134.25
2018-09-10T20:19:36.448Z,102133.77
2018-09-10T20:22:08.595Z,102132.90
2018-09-10T20:24:38.063Z,102146.17
2018-09-10T20:27:07.441Z,102137.38
2018-09-10T20:29:36.790Z,102143.55
2018-09-10T20:32:08.302Z,102147.99
2018-09-10T20:34:37.759Z,102143.55
2018-09-10T20:37:07.220Z,102155.05
2018-09-10T20:39:36.761Z,102155.95
2018-09-10T20:42:06.278Z,102145.34
2018-09-10T20:44:35.690Z,102128.95
2018-09-10T20:47:07.049Z,102128.95
2018-09-10T20:49:37.021Z,102124.97
2018-09-10T20:52:06.535Z,102131.56
2018-09-10T20:54:40.103Z,102127.63
2018-09-10T20:57:09.504Z,102124.97
2018-09-10T20:59:38.896Z,102124.97
2018-09-10T21:02:12.082Z,102120.98
2018-09-10T21:04:42.716Z,102117.88
2018-09-10T21:07:12.174Z,102118.80
2018-09-10T21:09:41.572Z,102122.77
2018-09-10T21:12:11.043Z,102116.55
2018-09-10T21:14:40.801Z,102104.19
2018-09-10T21:17:10.506Z,102101.99
2018-09-10T21:19:39.954Z,102094.45
2018-09-10T21:22:09.379Z,102086.48
2018-09-10T21:24:38.799Z,102089.14
2018-09-10T21:27:09.323Z,102092.25
2018-09-10T21:29:39.966Z,102105.07
2018-09-10T21:32:10.722Z,102106.39
2018-09-10T21:34:40.113Z,102109.92
2018-09-10T21:37:09.503Z,102113.02
2018-09-10T21:39:40.603Z,102122.31
2018-09-10T21:42:10.117Z,102115.22
2018-09-10T21:44:39.513Z,102103.73
2018-09-10T21:47:13.573Z,102099.76
2018-09-10T21:49:43.025Z,102096.69
2018-09-10T21:52:12.403Z,102094.49
2018-09-10T21:54:41.786Z,102094.95
2018-09-10T21:57:11.525Z,102093.67
2018-09-10T21:59:41.833Z,102084.84
2018-09-10T22:02:11.203Z,102071.13
2018-09-10T22:04:40.650Z,102065.86
2018-09-10T22:07:10.999Z,102070.35
2018-09-10T22:09:40.401Z,102072.19
2018-09-10T22:12:10.011Z,102073.14
2018-09-10T22:14:39.421Z,102074.93
2018-09-10T22:17:08.942Z,102082.93
2018-09-10T22:19:38.295Z,102086.04
2018-09-10T22:22:07.788Z,102075.92
2018-09-10T22:24:37.180Z,102081.23
2018-09-10T22:27:06.506Z,102081.70
2018-09-10T22:29:35.957Z,102079.05
2018-09-10T22:32:06.417Z,102070.17
2018-09-10T22:34:35.753Z,102066.23
2018-09-10T22:37:06.679Z,102061.80
2018-09-10T22:39:36.037Z,102066.69
2018-09-10T22:42:07.136Z,102079.49
2018-09-10T22:44:37.178Z,102079.95
2018-09-10T22:47:06.747Z,102089.23
2018-09-10T22:49:36.955Z,102088.81
2018-09-10T22:52:06.911Z,102091.05
2018-09-10T22:54:36.285Z,102087.53
2018-09-10T22:57:06.314Z,102076.55
2018-09-10T22:59:37.877Z,102081.89
2018-09-10T23:02:07.371Z,102078.83
2018-09-10T23:04:36.693Z,102070.48
2018-09-10T23:07:07.497Z,102063.86
2018-09-10T23:09:36.846Z,102058.59
2018-09-10T23:12:13.918Z,102070.56
2018-09-10T23:14:51.079Z,102063.06
2018-09-10T23:17:30.061Z,102067.94
2018-09-10T23:20:03.751Z,102072.85
2018-09-10T23:22:42.338Z,102063.16
2018-09-10T23:25:20.397Z,102062.77
2018-09-10T23:27:56.162Z,102050.42
2018-09-10T23:30:34.276Z,102053.09
2018-09-10T23:33:11.577Z,102047.37
2018-09-10T23:35:49.612Z,102052.25
2018-09-10T23:38:27.616Z,102041.23
2018-09-10T23:41:04.010Z,102047.40
2018-09-10T23:43:41.751Z,102043.42
2018-09-10T23:46:21.798Z,102048.73
2018-09-10T23:49:00.838Z,102034.64
2018-09-10T23:51:39.557Z,102039.45
2018-09-10T23:54:18.819Z,102035.06
2018-09-10T23:56:59.504Z,102035.95
2018-09-10T23:59:38.454Z,102039.50
